sensor_id;sensor_type;location;lat;lon;timestamp;P1;durP1;ratioP1;P2;durP2;ratioP2
46653;SDS011;38960;51.074;17.004;2022-11-06T00:01:20;28.35;;;15.75;;
46653;SDS011;38960;51.074;17.004;2022-11-06T00:03:46;30.88;;;15.40;;
46653;SDS011;38960;51.074;17.004;2022-11-06T00:06:13;24.30;;;15.43;;
46653;SDS011;38960;51.074;17.004;2022-11-06T00:08:58;29.05;;;15.15;;
46653;SDS011;38960;51.074;17.004;2022-11-06T00:11:24;30.30;;;14.52;;
46653;SDS011;38960;51.074;17.004;2022-11-06T00:13:50;26.08;;;14.93;;
46653;SDS011;38960;51.074;17.004;2022-11-06T00:16:18;25.58;;;14.38;;
46653;SDS011;38960;51.074;17.004;2022-11-06T00:18:44;28.42;;;15.55;;
46653;SDS011;38960;51.074;17.004;2022-11-06T00:23:37;27.83;;;15.15;;
46653;SDS011;38960;51.074;17.004;2022-11-06T00:26:13;23.13;;;15.10;;
46653;SDS011;38960;51.074;17.004;2022-11-06T00:28:40;27.77;;;15.18;;
46653;SDS011;38960;51.074;17.004;2022-11-06T00:31:07;30.92;;;15.73;;
46653;SDS011;38960;51.074;17.004;2022-11-06T00:33:34;30.63;;;14.40;;
46653;SDS011;38960;51.074;17.004;2022-11-06T00:36:03;29.33;;;15.07;;
46653;SDS011;38960;51.074;17.004;2022-11-06T00:38:30;24.25;;;15.68;;
46653;SDS011;38960;51.074;17.004;2022-11-06T00:40:56;28.73;;;14.57;;
46653;SDS011;38960;51.074;17.004;2022-11-06T00:43:21;25.90;;;15.32;;
46653;SDS011;38960;51.074;17.004;2022-11-06T00:45:47;30.67;;;14.70;;
46653;SDS011;38960;51.074;17.004;2022-11-06T00:48:12;27.73;;;15.10;;
46653;SDS011;38960;51.074;17.004;2022-11-06T00:50:38;31.05;;;15.13;;
46653;SDS011;38960;51.074;17.004;2022-11-06T00:53:04;23.17;;;14.77;;
46653;SDS011;38960;51.074;17.004;2022-11-06T00:55:29;25.08;;;15.75;;
46653;SDS011;38960;51.074;17.004;2022-11-06T00:57:55;28.05;;;15.23;;
46653;SDS011;38960;51.074;17.004;2022-11-06T01:00:22;35.63;;;15.63;;
46653;SDS011;38960;51.074;17.004;2022-11-06T01:02:48;24.73;;;14.70;;
46653;SDS011;38960;51.074;17.004;2022-11-06T01:05:13;26.52;;;14.40;;
46653;SDS011;38960;51.074;17.004;2022-11-06T01:07:39;28.02;;;15.95;;
46653;SDS011;38960;51.074;17.004;2022-11-06T01:10:05;30.25;;;15.07;;
46653;SDS011;38960;51.074;17.004;2022-11-06T01:12:32;24.75;;;15.10;;
46653;SDS011;38960;51.074;17.004;2022-11-06T01:14:58;30.30;;;14.77;;
46653;SDS011;38960;51.074;17.004;2022-11-06T01:17:24;26.27;;;13.73;;
46653;SDS011;38960;51.074;17.004;2022-11-06T01:19:49;35.13;;;16.58;;
46653;SDS011;38960;51.074;17.004;2022-11-06T01:22:15;24.23;;;13.98;;
46653;SDS011;38960;51.074;17.004;2022-11-06T01:24:41;26.30;;;14.60;;
46653;SDS011;38960;51.074;17.004;2022-11-06T01:27:06;22.90;;;14.27;;
46653;SDS011;38960;51.074;17.004;2022-11-06T01:29:32;25.48;;;14.10;;
46653;SDS011;38960;51.074;17.004;2022-11-06T01:31:57;26.05;;;14.40;;
46653;SDS011;38960;51.074;17.004;2022-11-06T01:34:23;21.52;;;14.20;;
46653;SDS011;38960;51.074;17.004;2022-11-06T01:36:49;26.88;;;15.20;;
46653;SDS011;38960;51.074;17.004;2022-11-06T01:39:14;22.10;;;14.10;;
46653;SDS011;38960;51.074;17.004;2022-11-06T01:41:44;23.92;;;13.95;;
46653;SDS011;38960;51.074;17.004;2022-11-06T01:47:01;22.00;;;13.55;;
46653;SDS011;38960;51.074;17.004;2022-11-06T01:49:29;28.10;;;14.65;;
46653;SDS011;38960;51.074;17.004;2022-11-06T01:51:58;26.25;;;14.02;;
46653;SDS011;38960;51.074;17.004;2022-11-06T01:54:26;26.83;;;13.57;;
46653;SDS011;38960;51.074;17.004;2022-11-06T01:56:53;22.65;;;13.52;;
46653;SDS011;38960;51.074;17.004;2022-11-06T01:59:20;26.63;;;13.95;;
46653;SDS011;38960;51.074;17.004;2022-11-06T02:01:48;28.95;;;14.82;;
46653;SDS011;38960;51.074;17.004;2022-11-06T02:04:21;25.70;;;15.07;;
46653;SDS011;38960;51.074;17.004;2022-11-06T02:06:51;25.42;;;14.63;;
46653;SDS011;38960;51.074;17.004;2022-11-06T02:09:17;26.23;;;14.20;;
46653;SDS011;38960;51.074;17.004;2022-11-06T02:11:45;24.20;;;13.20;;
46653;SDS011;38960;51.074;17.004;2022-11-06T02:14:31;27.42;;;14.75;;
46653;SDS011;38960;51.074;17.004;2022-11-06T02:17:03;28.67;;;14.57;;
46653;SDS011;38960;51.074;17.004;2022-11-06T02:28:28;28.88;;;14.65;;
46653;SDS011;38960;51.074;17.004;2022-11-06T02:30:57;26.95;;;13.60;;
46653;SDS011;38960;51.074;17.004;2022-11-06T02:33:26;29.83;;;14.02;;
46653;SDS011;38960;51.074;17.004;2022-11-06T02:35:59;24.63;;;13.10;;
46653;SDS011;38960;51.074;17.004;2022-11-06T02:38:29;25.83;;;14.68;;
46653;SDS011;38960;51.074;17.004;2022-11-06T02:40:59;23.52;;;13.35;;
46653;SDS011;38960;51.074;17.004;2022-11-06T02:43:30;29.05;;;14.10;;
46653;SDS011;38960;51.074;17.004;2022-11-06T02:46:04;25.25;;;14.35;;
46653;SDS011;38960;51.074;17.004;2022-11-06T02:48:33;24.92;;;13.40;;
46653;SDS011;38960;51.074;17.004;2022-11-06T02:51:02;22.20;;;13.40;;
46653;SDS011;38960;51.074;17.004;2022-11-06T02:53:29;27.10;;;14.57;;
46653;SDS011;38960;51.074;17.004;2022-11-06T02:55:57;26.27;;;14.93;;
46653;SDS011;38960;51.074;17.004;2022-11-06T02:58:29;24.85;;;14.60;;
46653;SDS011;38960;51.074;17.004;2022-11-06T03:00:59;30.60;;;15.13;;
46653;SDS011;38960;51.074;17.004;2022-11-06T03:03:30;22.63;;;13.80;;
46653;SDS011;38960;51.074;17.004;2022-11-06T03:08:56;21.77;;;13.73;;
46653;SDS011;38960;51.074;17.004;2022-11-06T03:11:33;26.87;;;13.27;;
46653;SDS011;38960;51.074;17.004;2022-11-06T03:14:10;24.10;;;13.83;;
46653;SDS011;38960;51.074;17.004;2022-11-06T03:25:14;28.60;;;14.87;;
46653;SDS011;38960;51.074;17.004;2022-11-06T03:30:22;28.20;;;14.57;;
46653;SDS011;38960;51.074;17.004;2022-11-06T03:32:49;29.93;;;13.80;;
46653;SDS011;38960;51.074;17.004;2022-11-06T03:37:51;27.87;;;15.60;;
46653;SDS011;38960;51.074;17.004;2022-11-06T03:40:21;23.80;;;15.13;;
46653;SDS011;38960;51.074;17.004;2022-11-06T03:42:48;31.07;;;16.10;;
46653;SDS011;38960;51.074;17.004;2022-11-06T03:45:19;29.33;;;16.73;;
46653;SDS011;38960;51.074;17.004;2022-11-06T03:47:51;29.10;;;17.47;;
46653;SDS011;38960;51.074;17.004;2022-11-06T03:50:25;31.00;;;19.83;;
46653;SDS011;38960;51.074;17.004;2022-11-06T03:53:12;37.13;;;20.83;;
46653;SDS011;38960;51.074;17.004;2022-11-06T03:55:44;32.93;;;20.57;;
46653;SDS011;38960;51.074;17.004;2022-11-06T03:58:22;31.57;;;19.57;;
46653;SDS011;38960;51.074;17.004;2022-11-06T04:00:49;31.47;;;19.03;;
46653;SDS011;38960;51.074;17.004;2022-11-06T04:03:25;34.23;;;18.80;;
46653;SDS011;38960;51.074;17.004;2022-11-06T04:05:55;31.80;;;17.87;;
46653;SDS011;38960;51.074;17.004;2022-11-06T04:08:25;27.70;;;16.55;;
46653;SDS011;38960;51.074;17.004;2022-11-06T04:11:11;25.87;;;14.60;;
46653;SDS011;38960;51.074;17.004;2022-11-06T04:13:59;27.83;;;13.93;;
46653;SDS011;38960;51.074;17.004;2022-11-06T04:16:30;24.03;;;13.60;;
46653;SDS011;38960;51.074;17.004;2022-11-06T04:18:58;23.23;;;13.40;;
46653;SDS011;38960;51.074;17.004;2022-11-06T04:21:25;23.00;;;12.83;;
46653;SDS011;38960;51.074;17.004;2022-11-06T04:24:24;21.77;;;13.63;;
46653;SDS011;38960;51.074;17.004;2022-11-06T04:35:27;24.03;;;13.33;;
46653;SDS011;38960;51.074;17.004;2022-11-06T04:40:41;24.10;;;13.27;;
46653;SDS011;38960;51.074;17.004;2022-11-06T04:45:48;21.37;;;12.60;;
46653;SDS011;38960;51.074;17.004;2022-11-06T04:48:15;24.27;;;12.73;;
46653;SDS011;38960;51.074;17.004;2022-11-06T04:50:43;27.23;;;13.00;;
46653;SDS011;38960;51.074;17.004;2022-11-06T04:53:12;23.00;;;12.20;;
46653;SDS011;38960;51.074;17.004;2022-11-06T04:55:49;25.93;;;12.80;;
46653;SDS011;38960;51.074;17.004;2022-11-06T04:58:16;22.17;;;12.80;;
46653;SDS011;38960;51.074;17.004;2022-11-06T05:00:46;22.60;;;12.87;;
46653;SDS011;38960;51.074;17.004;2022-11-06T05:03:13;25.20;;;12.80;;
46653;SDS011;38960;51.074;17.004;2022-11-06T05:05:39;26.93;;;14.23;;
46653;SDS011;38960;51.074;17.004;2022-11-06T05:08:05;25.23;;;14.07;;
46653;SDS011;38960;51.074;17.004;2022-11-06T05:10:31;21.40;;;12.60;;
46653;SDS011;38960;51.074;17.004;2022-11-06T05:12:57;27.17;;;13.65;;
46653;SDS011;38960;51.074;17.004;2022-11-06T05:15:22;21.07;;;12.63;;
46653;SDS011;38960;51.074;17.004;2022-11-06T05:17:48;22.33;;;12.67;;
46653;SDS011;38960;51.074;17.004;2022-11-06T05:20:13;24.30;;;14.70;;
46653;SDS011;38960;51.074;17.004;2022-11-06T05:22:39;19.97;;;11.80;;
46653;SDS011;38960;51.074;17.004;2022-11-06T05:25:27;21.23;;;12.33;;
46653;SDS011;38960;51.074;17.004;2022-11-06T05:27:54;26.57;;;13.70;;
46653;SDS011;38960;51.074;17.004;2022-11-06T05:30:20;25.97;;;12.83;;
46653;SDS011;38960;51.074;17.004;2022-11-06T05:32:46;22.53;;;12.43;;
46653;SDS011;38960;51.074;17.004;2022-11-06T05:35:13;22.10;;;12.93;;
46653;SDS011;38960;51.074;17.004;2022-11-06T05:37:39;22.70;;;12.60;;
46653;SDS011;38960;51.074;17.004;2022-11-06T05:40:05;21.53;;;12.83;;
46653;SDS011;38960;51.074;17.004;2022-11-06T05:42:32;21.93;;;13.37;;
46653;SDS011;38960;51.074;17.004;2022-11-06T05:44:58;27.47;;;13.50;;
46653;SDS011;38960;51.074;17.004;2022-11-06T05:47:24;23.53;;;12.20;;
46653;SDS011;38960;51.074;17.004;2022-11-06T05:49:49;25.97;;;14.17;;
46653;SDS011;38960;51.074;17.004;2022-11-06T05:52:15;21.37;;;12.80;;
46653;SDS011;38960;51.074;17.004;2022-11-06T05:54:41;23.17;;;13.37;;
46653;SDS011;38960;51.074;17.004;2022-11-06T05:57:06;19.87;;;13.13;;
46653;SDS011;38960;51.074;17.004;2022-11-06T05:59:32;22.83;;;13.10;;
46653;SDS011;38960;51.074;17.004;2022-11-06T06:01:57;24.37;;;13.67;;
46653;SDS011;38960;51.074;17.004;2022-11-06T06:04:23;18.47;;;12.87;;
46653;SDS011;38960;51.074;17.004;2022-11-06T06:06:49;20.97;;;13.03;;
46653;SDS011;38960;51.074;17.004;2022-11-06T06:09:15;23.03;;;12.33;;
46653;SDS011;38960;51.074;17.004;2022-11-06T06:11:40;26.47;;;13.33;;
46653;SDS011;38960;51.074;17.004;2022-11-06T06:14:06;25.37;;;12.70;;
46653;SDS011;38960;51.074;17.004;2022-11-06T06:16:31;26.00;;;11.93;;
46653;SDS011;38960;51.074;17.004;2022-11-06T06:18:57;24.10;;;12.50;;
46653;SDS011;38960;51.074;17.004;2022-11-06T06:21:23;24.97;;;12.97;;
46653;SDS011;38960;51.074;17.004;2022-11-06T06:23:48;24.10;;;12.97;;
46653;SDS011;38960;51.074;17.004;2022-11-06T06:26:14;24.20;;;12.73;;
46653;SDS011;38960;51.074;17.004;2022-11-06T06:28:40;27.07;;;12.43;;
46653;SDS011;38960;51.074;17.004;2022-11-06T06:31:06;22.10;;;13.23;;
46653;SDS011;38960;51.074;17.004;2022-11-06T06:33:32;25.53;;;13.27;;
46653;SDS011;38960;51.074;17.004;2022-11-06T06:35:57;21.53;;;12.60;;
46653;SDS011;38960;51.074;17.004;2022-11-06T06:38:26;29.73;;;12.00;;
46653;SDS011;38960;51.074;17.004;2022-11-06T06:40:52;21.17;;;12.53;;
46653;SDS011;38960;51.074;17.004;2022-11-06T06:43:18;23.50;;;11.63;;
46653;SDS011;38960;51.074;17.004;2022-11-06T06:45:44;19.30;;;11.63;;
46653;SDS011;38960;51.074;17.004;2022-11-06T06:48:09;19.70;;;11.23;;
46653;SDS011;38960;51.074;17.004;2022-11-06T06:50:35;19.40;;;11.30;;
46653;SDS011;38960;51.074;17.004;2022-11-06T06:53:00;21.20;;;12.40;;
46653;SDS011;38960;51.074;17.004;2022-11-06T06:55:26;29.67;;;13.03;;
46653;SDS011;38960;51.074;17.004;2022-11-06T06:57:55;22.87;;;12.27;;
46653;SDS011;38960;51.074;17.004;2022-11-06T07:00:22;27.13;;;13.60;;
46653;SDS011;38960;51.074;17.004;2022-11-06T07:02:47;24.07;;;13.57;;
46653;SDS011;38960;51.074;17.004;2022-11-06T07:05:13;25.13;;;11.87;;
46653;SDS011;38960;51.074;17.004;2022-11-06T07:07:38;27.17;;;12.60;;
46653;SDS011;38960;51.074;17.004;2022-11-06T07:10:04;19.97;;;11.80;;
46653;SDS011;38960;51.074;17.004;2022-11-06T07:12:30;24.47;;;13.30;;
46653;SDS011;38960;51.074;17.004;2022-11-06T07:14:56;21.07;;;10.50;;
46653;SDS011;38960;51.074;17.004;2022-11-06T07:17:21;23.03;;;11.57;;
46653;SDS011;38960;51.074;17.004;2022-11-06T07:19:47;20.85;;;11.65;;
46653;SDS011;38960;51.074;17.004;2022-11-06T07:22:12;21.07;;;11.43;;
46653;SDS011;38960;51.074;17.004;2022-11-06T07:24:38;21.17;;;11.82;;
46653;SDS011;38960;51.074;17.004;2022-11-06T07:27:04;20.38;;;11.70;;
46653;SDS011;38960;51.074;17.004;2022-11-06T07:29:29;21.45;;;11.77;;
46653;SDS011;38960;51.074;17.004;2022-11-06T07:31:55;21.83;;;11.25;;
46653;SDS011;38960;51.074;17.004;2022-11-06T07:34:21;20.55;;;11.25;;
46653;SDS011;38960;51.074;17.004;2022-11-06T07:36:46;23.15;;;11.52;;
46653;SDS011;38960;51.074;17.004;2022-11-06T07:39:12;27.52;;;12.00;;
46653;SDS011;38960;51.074;17.004;2022-11-06T07:41:37;20.98;;;11.52;;
46653;SDS011;38960;51.074;17.004;2022-11-06T07:44:03;19.83;;;11.77;;
46653;SDS011;38960;51.074;17.004;2022-11-06T07:46:29;18.25;;;10.98;;
46653;SDS011;38960;51.074;17.004;2022-11-06T07:48:55;23.17;;;13.23;;
46653;SDS011;38960;51.074;17.004;2022-11-06T07:51:20;21.15;;;10.48;;
46653;SDS011;38960;51.074;17.004;2022-11-06T07:53:46;16.95;;;9.35;;
46653;SDS011;38960;51.074;17.004;2022-11-06T07:56:11;17.55;;;9.95;;
46653;SDS011;38960;51.074;17.004;2022-11-06T07:58:37;15.93;;;9.20;;
46653;SDS011;38960;51.074;17.004;2022-11-06T08:01:02;17.52;;;9.18;;
46653;SDS011;38960;51.074;17.004;2022-11-06T08:03:28;19.08;;;8.63;;
46653;SDS011;38960;51.074;17.004;2022-11-06T08:05:54;17.88;;;8.63;;
46653;SDS011;38960;51.074;17.004;2022-11-06T08:08:20;14.98;;;7.95;;
46653;SDS011;38960;51.074;17.004;2022-11-06T08:10:46;15.95;;;9.25;;
46653;SDS011;38960;51.074;17.004;2022-11-06T08:13:13;19.05;;;8.48;;
46653;SDS011;38960;51.074;17.004;2022-11-06T08:15:40;14.90;;;7.30;;
46653;SDS011;38960;51.074;17.004;2022-11-06T08:18:06;16.85;;;8.50;;
46653;SDS011;38960;51.074;17.004;2022-11-06T08:20:33;14.38;;;7.97;;
46653;SDS011;38960;51.074;17.004;2022-11-06T08:23:00;18.85;;;8.00;;
46653;SDS011;38960;51.074;17.004;2022-11-06T08:25:26;12.18;;;7.18;;
46653;SDS011;38960;51.074;17.004;2022-11-06T08:27:59;13.48;;;6.78;;
46653;SDS011;38960;51.074;17.004;2022-11-06T08:30:26;11.20;;;7.05;;
46653;SDS011;38960;51.074;17.004;2022-11-06T08:32:52;13.45;;;7.80;;
46653;SDS011;38960;51.074;17.004;2022-11-06T08:35:18;16.38;;;6.18;;
46653;SDS011;38960;51.074;17.004;2022-11-06T08:37:45;12.13;;;6.15;;
46653;SDS011;38960;51.074;17.004;2022-11-06T08:40:11;13.63;;;6.35;;
46653;SDS011;38960;51.074;17.004;2022-11-06T08:42:36;16.17;;;7.72;;
46653;SDS011;38960;51.074;17.004;2022-11-06T08:45:02;12.88;;;6.55;;
46653;SDS011;38960;51.074;17.004;2022-11-06T08:47:29;12.07;;;6.07;;
46653;SDS011;38960;51.074;17.004;2022-11-06T08:49:54;13.57;;;6.57;;
46653;SDS011;38960;51.074;17.004;2022-11-06T08:52:20;10.70;;;6.18;;
46653;SDS011;38960;51.074;17.004;2022-11-06T08:54:45;10.93;;;6.55;;
46653;SDS011;38960;51.074;17.004;2022-11-06T08:57:11;12.35;;;6.22;;
46653;SDS011;38960;51.074;17.004;2022-11-06T08:59:37;13.55;;;6.88;;
46653;SDS011;38960;51.074;17.004;2022-11-06T09:02:02;12.32;;;7.30;;
46653;SDS011;38960;51.074;17.004;2022-11-06T09:04:28;12.35;;;7.10;;
46653;SDS011;38960;51.074;17.004;2022-11-06T09:06:55;14.60;;;7.25;;
46653;SDS011;38960;51.074;17.004;2022-11-06T09:09:21;13.73;;;7.10;;
46653;SDS011;38960;51.074;17.004;2022-11-06T09:11:47;15.70;;;7.68;;
46653;SDS011;38960;51.074;17.004;2022-11-06T09:14:12;14.45;;;6.95;;
46653;SDS011;38960;51.074;17.004;2022-11-06T09:16:38;15.30;;;7.18;;
46653;SDS011;38960;51.074;17.004;2022-11-06T09:19:03;16.70;;;6.80;;
46653;SDS011;38960;51.074;17.004;2022-11-06T09:21:29;9.93;;;6.03;;
46653;SDS011;38960;51.074;17.004;2022-11-06T09:23:55;12.07;;;6.90;;
46653;SDS011;38960;51.074;17.004;2022-11-06T09:26:20;15.25;;;6.43;;
46653;SDS011;38960;51.074;17.004;2022-11-06T09:28:46;10.15;;;5.70;;
46653;SDS011;38960;51.074;17.004;2022-11-06T09:31:12;13.45;;;6.18;;
46653;SDS011;38960;51.074;17.004;2022-11-06T09:33:37;14.50;;;6.05;;
46653;SDS011;38960;51.074;17.004;2022-11-06T09:36:03;13.75;;;6.43;;
46653;SDS011;38960;51.074;17.004;2022-11-06T09:38:29;12.80;;;6.45;;
46653;SDS011;38960;51.074;17.004;2022-11-06T09:40:56;13.32;;;6.13;;
46653;SDS011;38960;51.074;17.004;2022-11-06T09:46:24;12.32;;;6.45;;
46653;SDS011;38960;51.074;17.004;2022-11-06T09:49:00;10.50;;;5.57;;
46653;SDS011;38960;51.074;17.004;2022-11-06T09:51:31;16.35;;;6.30;;
46653;SDS011;38960;51.074;17.004;2022-11-06T09:54:15;12.32;;;6.15;;
46653;SDS011;38960;51.074;17.004;2022-11-06T09:57:17;12.93;;;5.40;;
46653;SDS011;38960;51.074;17.004;2022-11-06T09:59:50;16.88;;;6.40;;
46653;SDS011;38960;51.074;17.004;2022-11-06T10:05:04;17.42;;;5.70;;
46653;SDS011;38960;51.074;17.004;2022-11-06T10:07:34;14.30;;;6.10;;
46653;SDS011;38960;51.074;17.004;2022-11-06T10:10:02;12.50;;;6.27;;
46653;SDS011;38960;51.074;17.004;2022-11-06T10:15:33;14.93;;;6.53;;
46653;SDS011;38960;51.074;17.004;2022-11-06T10:20:51;10.43;;;4.70;;
46653;SDS011;38960;51.074;17.004;2022-11-06T10:25:54;11.10;;;5.13;;
46653;SDS011;38960;51.074;17.004;2022-11-06T10:31:32;11.70;;;4.30;;
46653;SDS011;38960;51.074;17.004;2022-11-06T10:36:36;11.18;;;4.43;;
46653;SDS011;38960;51.074;17.004;2022-11-06T10:39:10;10.40;;;4.32;;
46653;SDS011;38960;51.074;17.004;2022-11-06T10:41:38;11.68;;;3.55;;
46653;SDS011;38960;51.074;17.004;2022-11-06T10:44:05;10.40;;;4.00;;
46653;SDS011;38960;51.074;17.004;2022-11-06T10:46:36;14.52;;;4.80;;
46653;SDS011;38960;51.074;17.004;2022-11-06T10:49:39;15.70;;;4.97;;
46653;SDS011;38960;51.074;17.004;2022-11-06T11:00:05;15.98;;;4.45;;
46653;SDS011;38960;51.074;17.004;2022-11-06T11:02:38;12.27;;;4.63;;
46653;SDS011;38960;51.074;17.004;2022-11-06T11:05:11;10.18;;;4.25;;
46653;SDS011;38960;51.074;17.004;2022-11-06T11:07:38;12.55;;;4.65;;
46653;SDS011;38960;51.074;17.004;2022-11-06T11:10:47;10.90;;;4.22;;
46653;SDS011;38960;51.074;17.004;2022-11-06T11:12:56;12.95;;;4.15;;
46653;SDS011;38960;51.074;17.004;2022-11-06T11:15:26;11.85;;;3.95;;
46653;SDS011;38960;51.074;17.004;2022-11-06T11:21:05;9.93;;;3.70;;
46653;SDS011;38960;51.074;17.004;2022-11-06T11:23:34;12.93;;;4.20;;
46653;SDS011;38960;51.074;17.004;2022-11-06T11:26:19;8.52;;;3.25;;
46653;SDS011;38960;51.074;17.004;2022-11-06T11:28:58;9.77;;;3.58;;
46653;SDS011;38960;51.074;17.004;2022-11-06T11:31:26;12.27;;;3.50;;
46653;SDS011;38960;51.074;17.004;2022-11-06T11:33:54;10.68;;;3.97;;
46653;SDS011;38960;51.074;17.004;2022-11-06T11:36:21;9.82;;;3.72;;
46653;SDS011;38960;51.074;17.004;2022-11-06T11:38:47;11.50;;;3.22;;
46653;SDS011;38960;51.074;17.004;2022-11-06T11:46:20;8.57;;;3.65;;
46653;SDS011;38960;51.074;17.004;2022-11-06T11:48:53;10.50;;;3.85;;
46653;SDS011;38960;51.074;17.004;2022-11-06T11:51:31;11.80;;;3.35;;
46653;SDS011;38960;51.074;17.004;2022-11-06T11:57:22;11.05;;;3.70;;
46653;SDS011;38960;51.074;17.004;2022-11-06T11:59:28;9.15;;;3.63;;
46653;SDS011;38960;51.074;17.004;2022-11-06T12:01:54;9.63;;;3.30;;
46653;SDS011;38960;51.074;17.004;2022-11-06T12:04:35;10.07;;;3.08;;
46653;SDS011;38960;51.074;17.004;2022-11-06T12:07:04;7.72;;;3.00;;
46653;SDS011;38960;51.074;17.004;2022-11-06T12:09:32;10.23;;;2.92;;
46653;SDS011;38960;51.074;17.004;2022-11-06T12:12:04;13.25;;;3.70;;
46653;SDS011;38960;51.074;17.004;2022-11-06T12:14:32;12.02;;;3.53;;
46653;SDS011;38960;51.074;17.004;2022-11-06T12:19:45;7.25;;;2.97;;
46653;SDS011;38960;51.074;17.004;2022-11-06T12:22:16;8.73;;;3.33;;
46653;SDS011;38960;51.074;17.004;2022-11-06T12:24:48;9.65;;;2.80;;
46653;SDS011;38960;51.074;17.004;2022-11-06T12:27:48;14.90;;;3.13;;
46653;SDS011;38960;51.074;17.004;2022-11-06T12:30:10;6.00;;;2.20;;
46653;SDS011;38960;51.074;17.004;2022-11-06T12:35:40;8.75;;;2.60;;
46653;SDS011;38960;51.074;17.004;2022-11-06T12:41:32;12.60;;;2.95;;
46653;SDS011;38960;51.074;17.004;2022-11-06T12:43:39;10.95;;;2.90;;
46653;SDS011;38960;51.074;17.004;2022-11-06T12:46:20;12.20;;;3.20;;
46653;SDS011;38960;51.074;17.004;2022-11-06T12:54:29;10.13;;;3.03;;
46653;SDS011;38960;51.074;17.004;2022-11-06T13:00:20;12.35;;;2.90;;
46653;SDS011;38960;51.074;17.004;2022-11-06T13:03:21;11.80;;;3.50;;
46653;SDS011;38960;51.074;17.004;2022-11-06T13:08:31;12.75;;;4.13;;
46653;SDS011;38960;51.074;17.004;2022-11-06T13:11:24;8.15;;;3.03;;
46653;SDS011;38960;51.074;17.004;2022-11-06T13:16:58;12.60;;;3.25;;
46653;SDS011;38960;51.074;17.004;2022-11-06T13:27:38;8.45;;;2.60;;
46653;SDS011;38960;51.074;17.004;2022-11-06T13:30:12;9.30;;;2.83;;
46653;SDS011;38960;51.074;17.004;2022-11-06T13:32:40;8.98;;;2.58;;
46653;SDS011;38960;51.074;17.004;2022-11-06T13:35:16;11.68;;;3.22;;
46653;SDS011;38960;51.074;17.004;2022-11-06T13:37:45;11.77;;;2.72;;
46653;SDS011;38960;51.074;17.004;2022-11-06T13:40:17;7.03;;;3.10;;
46653;SDS011;38960;51.074;17.004;2022-11-06T13:43:05;11.57;;;2.70;;
46653;SDS011;38960;51.074;17.004;2022-11-06T13:48:22;12.93;;;2.67;;
46653;SDS011;38960;51.074;17.004;2022-11-06T13:51:07;7.82;;;2.65;;
46653;SDS011;38960;51.074;17.004;2022-11-06T13:53:59;10.15;;;2.70;;
46653;SDS011;38960;51.074;17.004;2022-11-06T14:07:42;5.90;;;2.25;;
46653;SDS011;38960;51.074;17.004;2022-11-06T14:10:25;8.82;;;3.53;;
46653;SDS011;38960;51.074;17.004;2022-11-06T14:12:58;5.68;;;2.42;;
46653;SDS011;38960;51.074;17.004;2022-11-06T14:15:27;15.13;;;4.35;;
46653;SDS011;38960;51.074;17.004;2022-11-06T14:18:10;9.55;;;3.40;;
46653;SDS011;38960;51.074;17.004;2022-11-06T14:20:38;9.02;;;2.92;;
46653;SDS011;38960;51.074;17.004;2022-11-06T14:26:01;10.27;;;3.20;;
46653;SDS011;38960;51.074;17.004;2022-11-06T14:28:41;8.70;;;3.13;;
46653;SDS011;38960;51.074;17.004;2022-11-06T14:31:07;13.10;;;4.03;;
46653;SDS011;38960;51.074;17.004;2022-11-06T14:38:50;15.50;;;3.60;;
46653;SDS011;38960;51.074;17.004;2022-11-06T14:44:00;10.25;;;3.63;;
46653;SDS011;38960;51.074;17.004;2022-11-06T14:46:28;14.50;;;3.83;;
46653;SDS011;38960;51.074;17.004;2022-11-06T14:48:55;12.88;;;4.75;;
46653;SDS011;38960;51.074;17.004;2022-11-06T14:51:32;11.93;;;4.28;;
46653;SDS011;38960;51.074;17.004;2022-11-06T14:53:58;8.55;;;3.45;;
46653;SDS011;38960;51.074;17.004;2022-11-06T14:56:26;12.80;;;3.65;;
46653;SDS011;38960;51.074;17.004;2022-11-06T14:59:04;9.13;;;3.30;;
46653;SDS011;38960;51.074;17.004;2022-11-06T15:01:31;6.85;;;3.65;;
46653;SDS011;38960;51.074;17.004;2022-11-06T15:04:00;11.38;;;3.85;;
46653;SDS011;38960;51.074;17.004;2022-11-06T15:09:01;10.30;;;3.85;;
46653;SDS011;38960;51.074;17.004;2022-11-06T15:19:13;10.52;;;3.97;;
46653;SDS011;38960;51.074;17.004;2022-11-06T15:21:51;9.60;;;3.80;;
46653;SDS011;38960;51.074;17.004;2022-11-06T15:24:42;12.23;;;3.38;;
46653;SDS011;38960;51.074;17.004;2022-11-06T15:27:20;11.00;;;3.60;;
46653;SDS011;38960;51.074;17.004;2022-11-06T15:29:50;10.55;;;3.75;;
46653;SDS011;38960;51.074;17.004;2022-11-06T15:32:20;10.07;;;3.75;;
46653;SDS011;38960;51.074;17.004;2022-11-06T15:34:50;12.73;;;4.35;;
46653;SDS011;38960;51.074;17.004;2022-11-06T15:37:28;12.02;;;4.85;;
46653;SDS011;38960;51.074;17.004;2022-11-06T15:39:56;13.13;;;4.95;;
46653;SDS011;38960;51.074;17.004;2022-11-06T15:42:30;15.45;;;5.80;;
46653;SDS011;38960;51.074;17.004;2022-11-06T15:45:08;17.55;;;5.88;;
46653;SDS011;38960;51.074;17.004;2022-11-06T15:48:01;16.83;;;7.18;;
46653;SDS011;38960;51.074;17.004;2022-11-06T15:50:30;15.57;;;7.50;;
46653;SDS011;38960;51.074;17.004;2022-11-06T15:55:40;20.13;;;9.07;;
46653;SDS011;38960;51.074;17.004;2022-11-06T16:03:08;22.15;;;11.25;;
46653;SDS011;38960;51.074;17.004;2022-11-06T16:05:36;23.70;;;10.40;;
46653;SDS011;38960;51.074;17.004;2022-11-06T16:08:04;20.00;;;11.48;;
46653;SDS011;38960;51.074;17.004;2022-11-06T16:10:30;25.48;;;11.85;;
46653;SDS011;38960;51.074;17.004;2022-11-06T16:12:57;23.95;;;12.68;;
46653;SDS011;38960;51.074;17.004;2022-11-06T16:18:10;33.97;;;14.85;;
46653;SDS011;38960;51.074;17.004;2022-11-06T16:20:38;29.50;;;14.35;;
46653;SDS011;38960;51.074;17.004;2022-11-06T16:23:04;27.30;;;15.27;;
46653;SDS011;38960;51.074;17.004;2022-11-06T16:25:29;26.23;;;15.52;;
46653;SDS011;38960;51.074;17.004;2022-11-06T16:27:55;34.22;;;15.90;;
46653;SDS011;38960;51.074;17.004;2022-11-06T16:30:21;29.05;;;16.20;;
46653;SDS011;38960;51.074;17.004;2022-11-06T16:32:47;30.98;;;16.50;;
46653;SDS011;38960;51.074;17.004;2022-11-06T16:35:32;24.58;;;14.82;;
46653;SDS011;38960;51.074;17.004;2022-11-06T16:38:26;28.75;;;17.23;;
46653;SDS011;38960;51.074;17.004;2022-11-06T16:41:10;29.85;;;16.05;;
46653;SDS011;38960;51.074;17.004;2022-11-06T16:44:20;33.08;;;18.30;;
46653;SDS011;38960;51.074;17.004;2022-11-06T16:49:34;27.77;;;15.77;;
46653;SDS011;38960;51.074;17.004;2022-11-06T16:52:02;26.08;;;16.05;;
46653;SDS011;38960;51.074;17.004;2022-11-06T16:57:14;29.80;;;16.02;;
46653;SDS011;38960;51.074;17.004;2022-11-06T16:59:43;30.30;;;15.93;;
46653;SDS011;38960;51.074;17.004;2022-11-06T17:02:18;28.08;;;14.85;;
46653;SDS011;38960;51.074;17.004;2022-11-06T17:04:45;21.70;;;13.38;;
46653;SDS011;38960;51.074;17.004;2022-11-06T17:07:16;25.40;;;13.93;;
46653;SDS011;38960;51.074;17.004;2022-11-06T17:09:44;26.20;;;14.15;;
46653;SDS011;38960;51.074;17.004;2022-11-06T17:12:09;25.25;;;14.60;;
46653;SDS011;38960;51.074;17.004;2022-11-06T17:14:35;26.25;;;14.77;;
46653;SDS011;38960;51.074;17.004;2022-11-06T17:17:01;32.90;;;15.02;;